WZZ317 EHEH-EYVI
Flight info
| Callsign | WZZ317 |
|---|---|
| Flight time | 1h 44m |
| Altitude | 37000 |
| Route | VELNI Y869 SUMOP L179 MISRI Z851 ROBEG DCT ALUKA DCT BARGU N858 BOKSU DCT IRKAL |
| Aircraft | A321/M-SDE1E2E3FGIJ1J4RWXY/LB1 |
Departure
| Time | 2026-05-06 15:27 |
|---|---|
| Airport | Eindhoven Airport (EHEH) |
Arrival
| Time | 2026-05-06 17:12 |
|---|---|
| Airport | Vilnius International Airport (EYVI) |
| Time | Latitude | Longitude | Altitude | Speed | Heading |
|---|---|---|---|---|---|
| 2026-05-06 15:12 | 51.45696 | 5.38883 | 83 ft | 0 kts | 124° |
| 2026-05-06 15:17 | 51.45699 | 5.38876 | 83 ft | 2 kts | 124° |
| 2026-05-06 15:17 | 51.45707 | 5.38857 | 83 ft | 2 kts | 124° |
| 2026-05-06 15:17 | 51.45716 | 5.38837 | 83 ft | 2 kts | 124° |
| 2026-05-06 15:18 | 51.45721 | 5.38825 | 83 ft | 2 kts | 125° |
| 2026-05-06 15:18 | 51.45727 | 5.38803 | 83 ft | 2 kts | 96° |
| 2026-05-06 15:18 | 51.45726 | 5.38779 | 83 ft | 2 kts | 75° |
| 2026-05-06 15:18 | 51.45720 | 5.38757 | 83 ft | 2 kts | 52° |
| 2026-05-06 15:19 | 51.45713 | 5.38745 | 83 ft | 0 kts | 37° |
| 2026-05-06 15:19 | 51.45708 | 5.38739 | 83 ft | 0 kts | 34° |
| 2026-05-06 15:21 | 51.45709 | 5.38740 | 83 ft | 2 kts | 34° |
| 2026-05-06 15:21 | 51.45776 | 5.38769 | 83 ft | 13 kts | 327° |
| 2026-05-06 15:21 | 51.45831 | 5.38645 | 83 ft | 14 kts | 301° |
| 2026-05-06 15:21 | 51.45888 | 5.38515 | 83 ft | 14 kts | 305° |
| 2026-05-06 15:22 | 51.45947 | 5.38383 | 83 ft | 14 kts | 305° |
| 2026-05-06 15:22 | 51.45961 | 5.38240 | 83 ft | 14 kts | 229° |
| 2026-05-06 15:22 | 51.45855 | 5.38119 | 83 ft | 20 kts | 214° |
| 2026-05-06 15:22 | 51.45741 | 5.37991 | 83 ft | 19 kts | 214° |
| 2026-05-06 15:23 | 51.45630 | 5.37866 | 83 ft | 19 kts | 214° |
| 2026-05-06 15:23 | 51.45522 | 5.37742 | 83 ft | 19 kts | 216° |
| 2026-05-06 15:23 | 51.45416 | 5.37617 | 83 ft | 18 kts | 216° |
| 2026-05-06 15:23 | 51.45309 | 5.37504 | 83 ft | 18 kts | 212° |
| 2026-05-06 15:24 | 51.45200 | 5.37386 | 83 ft | 20 kts | 215° |
| 2026-05-06 15:24 | 51.45085 | 5.37258 | 83 ft | 19 kts | 215° |
| 2026-05-06 15:24 | 51.44976 | 5.37134 | 83 ft | 19 kts | 214° |
| 2026-05-06 15:24 | 51.44868 | 5.37014 | 83 ft | 18 kts | 214° |
| 2026-05-06 15:25 | 51.44762 | 5.36896 | 83 ft | 18 kts | 214° |
| 2026-05-06 15:25 | 51.44656 | 5.36778 | 83 ft | 18 kts | 215° |
| 2026-05-06 15:25 | 51.44555 | 5.36662 | 83 ft | 17 kts | 215° |
| 2026-05-06 15:25 | 51.44453 | 5.36545 | 83 ft | 17 kts | 216° |
| 2026-05-06 15:26 | 51.44354 | 5.36429 | 83 ft | 17 kts | 216° |
| 2026-05-06 15:26 | 51.44253 | 5.36318 | 83 ft | 17 kts | 213° |
| 2026-05-06 15:26 | 51.44150 | 5.36320 | 83 ft | 16 kts | 136° |
| 2026-05-06 15:26 | 51.44131 | 5.36465 | 83 ft | 13 kts | 37° |
| 2026-05-06 15:27 | 51.44330 | 5.36684 | 83 ft | 68 kts | 34° |
| 2026-05-06 15:27 | 51.44908 | 5.37334 | 83 ft | 131 kts | 35° |
| 2026-05-06 15:27 | 51.45795 | 5.38330 | 188 ft | 172 kts | 33° |
| 2026-05-06 15:27 | 51.46786 | 5.39412 | 770 ft | 175 kts | 32° |
| 2026-05-06 15:28 | 51.47753 | 5.40476 | 1573 ft | 168 kts | 33° |
| 2026-05-06 15:28 | 51.48736 | 5.41598 | 1987 ft | 182 kts | 33° |
| 2026-05-06 15:28 | 51.49809 | 5.42824 | 2333 ft | 199 kts | 32° |
| 2026-05-06 15:28 | 51.50927 | 5.44304 | 2667 ft | 220 kts | 50° |
| 2026-05-06 15:29 | 51.51440 | 5.46709 | 3123 ft | 240 kts | 90° |
| 2026-05-06 15:29 | 51.51078 | 5.49280 | 4007 ft | 238 kts | 104° |
| 2026-05-06 15:29 | 51.50579 | 5.51826 | 4653 ft | 244 kts | 105° |
| 2026-05-06 15:29 | 51.50072 | 5.54421 | 5348 ft | 247 kts | 105° |
| 2026-05-06 15:30 | 51.49570 | 5.57099 | 6010 ft | 252 kts | 103° |
| 2026-05-06 15:30 | 51.49153 | 5.59858 | 6576 ft | 261 kts | 100° |
| 2026-05-06 15:30 | 51.48757 | 5.62808 | 6952 ft | 278 kts | 99° |
| 2026-05-06 15:30 | 51.48534 | 5.65949 | 7430 ft | 290 kts | 89° |
| 2026-05-06 15:31 | 51.48644 | 5.69168 | 8139 ft | 291 kts | 82° |
| 2026-05-06 15:31 | 51.48896 | 5.72411 | 8819 ft | 295 kts | 81° |
| 2026-05-06 15:31 | 51.49175 | 5.75661 | 9452 ft | 300 kts | 81° |
| 2026-05-06 15:32 | 51.49742 | 5.82435 | 10484 ft | 317 kts | 82° |
| 2026-05-06 15:32 | 51.50031 | 5.86031 | 10774 ft | 333 kts | 83° |
| 2026-05-06 15:32 | 51.50331 | 5.89823 | 11194 ft | 344 kts | 83° |
| 2026-05-06 15:32 | 51.50629 | 5.93620 | 11808 ft | 348 kts | 83° |
| 2026-05-06 15:33 | 51.50932 | 5.97496 | 12430 ft | 351 kts | 83° |
| 2026-05-06 15:33 | 51.51232 | 6.01398 | 12988 ft | 356 kts | 84° |
| 2026-05-06 15:33 | 51.51536 | 6.05364 | 13527 ft | 361 kts | 84° |
| 2026-05-06 15:33 | 51.51843 | 6.09384 | 14059 ft | 366 kts | 84° |
| 2026-05-06 15:34 | 51.52155 | 6.13475 | 14586 ft | 371 kts | 84° |
| 2026-05-06 15:34 | 51.52467 | 6.17584 | 15100 ft | 375 kts | 84° |
| 2026-05-06 15:34 | 51.52835 | 6.21788 | 15610 ft | 380 kts | 81° |
| 2026-05-06 15:34 | 51.53275 | 6.25958 | 16107 ft | 385 kts | 81° |
| 2026-05-06 15:35 | 51.53740 | 6.30207 | 16596 ft | 390 kts | 80° |
| 2026-05-06 15:35 | 51.54216 | 6.34537 | 17081 ft | 394 kts | 80° |
| 2026-05-06 15:35 | 51.54688 | 6.38870 | 17552 ft | 399 kts | 80° |
| 2026-05-06 15:35 | 51.55168 | 6.43312 | 18020 ft | 403 kts | 80° |
| 2026-05-06 15:36 | 51.55647 | 6.47775 | 18499 ft | 407 kts | 80° |
| 2026-05-06 15:36 | 51.56122 | 6.52219 | 19060 ft | 408 kts | 80° |
| 2026-05-06 15:36 | 51.56754 | 6.56709 | 19517 ft | 412 kts | 70° |
| 2026-05-06 15:36 | 51.57913 | 6.60916 | 19928 ft | 414 kts | 56° |
| 2026-05-06 15:37 | 51.59532 | 6.64738 | 20363 ft | 415 kts | 49° |
| 2026-05-06 15:37 | 51.61328 | 6.68474 | 20772 ft | 419 kts | 48° |
| 2026-05-06 15:37 | 51.63105 | 6.72145 | 21161 ft | 423 kts | 49° |
| 2026-05-06 15:37 | 51.64901 | 6.75947 | 21561 ft | 427 kts | 49° |
| 2026-05-06 15:38 | 51.66696 | 6.79816 | 21956 ft | 431 kts | 50° |
| 2026-05-06 15:38 | 51.68475 | 6.83686 | 22339 ft | 434 kts | 50° |
| 2026-05-06 15:38 | 51.70270 | 6.87603 | 22715 ft | 438 kts | 50° |
| 2026-05-06 15:38 | 51.72098 | 6.91596 | 23088 ft | 441 kts | 49° |
| 2026-05-06 15:39 | 51.73922 | 6.95580 | 23451 ft | 445 kts | 49° |
| 2026-05-06 15:39 | 51.75769 | 6.99622 | 23812 ft | 448 kts | 49° |
| 2026-05-06 15:39 | 51.77603 | 7.03642 | 24171 ft | 451 kts | 49° |
| 2026-05-06 15:39 | 51.79477 | 7.07758 | 24536 ft | 454 kts | 49° |
| 2026-05-06 15:40 | 51.81343 | 7.11864 | 24894 ft | 456 kts | 48° |
| 2026-05-06 15:40 | 51.83210 | 7.15974 | 25248 ft | 459 kts | 48° |
| 2026-05-06 15:40 | 51.85052 | 7.20235 | 25602 ft | 463 kts | 51° |
| 2026-05-06 15:40 | 51.86723 | 7.24697 | 25944 ft | 468 kts | 56° |
| 2026-05-06 15:41 | 51.88259 | 7.29307 | 26269 ft | 472 kts | 57° |
| 2026-05-06 15:41 | 51.89774 | 7.34031 | 26583 ft | 475 kts | 58° |
| 2026-05-06 15:41 | 51.91294 | 7.38780 | 26890 ft | 477 kts | 57° |
| 2026-05-06 15:41 | 51.92833 | 7.43600 | 27195 ft | 481 kts | 59° |
| 2026-05-06 15:42 | 51.94203 | 7.48540 | 27489 ft | 486 kts | 64° |
| 2026-05-06 15:42 | 51.95335 | 7.53749 | 27782 ft | 491 kts | 70° |
| 2026-05-06 15:42 | 51.96275 | 7.59086 | 28071 ft | 495 kts | 71° |
| 2026-05-06 15:42 | 51.97163 | 7.64501 | 28350 ft | 498 kts | 72° |
| 2026-05-06 15:43 | 51.98054 | 7.69967 | 28604 ft | 500 kts | 72° |
| 2026-05-06 15:43 | 51.98948 | 7.75380 | 28851 ft | 503 kts | 72° |
| 2026-05-06 15:43 | 51.99860 | 7.80842 | 29100 ft | 505 kts | 72° |
| 2026-05-06 15:43 | 52.00784 | 7.86350 | 29346 ft | 508 kts | 72° |
| 2026-05-06 15:44 | 52.01708 | 7.91883 | 29589 ft | 510 kts | 72° |
| 2026-05-06 15:44 | 52.02626 | 7.97441 | 29825 ft | 512 kts | 72° |
| 2026-05-06 15:44 | 52.03558 | 8.03095 | 30060 ft | 515 kts | 72° |
| 2026-05-06 15:44 | 52.04489 | 8.08727 | 30290 ft | 517 kts | 71° |
| 2026-05-06 15:45 | 52.05413 | 8.14319 | 30514 ft | 519 kts | 71° |
| 2026-05-06 15:45 | 52.06350 | 8.20001 | 30737 ft | 521 kts | 71° |
| 2026-05-06 15:45 | 52.07284 | 8.25694 | 30955 ft | 523 kts | 71° |
| 2026-05-06 15:45 | 52.08223 | 8.31450 | 31169 ft | 526 kts | 71° |
| 2026-05-06 15:46 | 52.09155 | 8.37198 | 31413 ft | 527 kts | 71° |
| 2026-05-06 15:46 | 52.10081 | 8.42943 | 31664 ft | 528 kts | 71° |
| 2026-05-06 15:46 | 52.11005 | 8.48690 | 31878 ft | 530 kts | 71° |
| 2026-05-06 15:46 | 52.11942 | 8.54528 | 32086 ft | 532 kts | 71° |
| 2026-05-06 15:47 | 52.12869 | 8.60325 | 32352 ft | 532 kts | 71° |
| 2026-05-06 15:47 | 52.13790 | 8.66106 | 32640 ft | 531 kts | 72° |
| 2026-05-06 15:47 | 52.14714 | 8.71915 | 32883 ft | 531 kts | 72° |
| 2026-05-06 15:47 | 52.15639 | 8.77756 | 33112 ft | 532 kts | 72° |
| 2026-05-06 15:48 | 52.16565 | 8.83620 | 33343 ft | 532 kts | 71° |
| 2026-05-06 15:48 | 52.17478 | 8.89435 | 33574 ft | 532 kts | 71° |
| 2026-05-06 15:48 | 52.18391 | 8.95287 | 33824 ft | 532 kts | 71° |
| 2026-05-06 15:48 | 52.19301 | 9.01102 | 34114 ft | 530 kts | 70° |
| 2026-05-06 15:49 | 52.20210 | 9.06895 | 34434 ft | 528 kts | 70° |
| 2026-05-06 15:49 | 52.21118 | 9.12676 | 34768 ft | 524 kts | 70° |
| 2026-05-06 15:49 | 52.22007 | 9.18344 | 35073 ft | 522 kts | 70° |
| 2026-05-06 15:49 | 52.22901 | 9.24069 | 35294 ft | 522 kts | 70° |
| 2026-05-06 15:50 | 52.23795 | 9.29815 | 35456 ft | 523 kts | 70° |
| 2026-05-06 15:50 | 52.24682 | 9.35544 | 35610 ft | 524 kts | 70° |
| 2026-05-06 15:50 | 52.25576 | 9.41339 | 35774 ft | 525 kts | 70° |
| 2026-05-06 15:50 | 52.26467 | 9.47125 | 35940 ft | 526 kts | 70° |
| 2026-05-06 15:51 | 52.27354 | 9.52904 | 36099 ft | 526 kts | 70° |
| 2026-05-06 15:51 | 52.28241 | 9.58700 | 36238 ft | 527 kts | 70° |
| 2026-05-06 15:51 | 52.29125 | 9.64509 | 36377 ft | 528 kts | 70° |
| 2026-05-06 15:51 | 52.30006 | 9.70308 | 36492 ft | 529 kts | 71° |
| 2026-05-06 15:52 | 52.30890 | 9.76153 | 36597 ft | 530 kts | 71° |
| 2026-05-06 15:52 | 52.31773 | 9.82020 | 36712 ft | 531 kts | 71° |
| 2026-05-06 15:52 | 52.32651 | 9.87872 | 36822 ft | 532 kts | 71° |
| 2026-05-06 15:52 | 52.33527 | 9.93736 | 36828 ft | 533 kts | 71° |
| 2026-05-06 15:53 | 52.35272 | 10.05474 | 36832 ft | 533 kts | 71° |
| 2026-05-06 15:53 | 52.37003 | 10.17203 | 36839 ft | 533 kts | 71° |
| 2026-05-06 15:54 | 52.38731 | 10.29000 | 36879 ft | 533 kts | 71° |
| 2026-05-06 15:54 | 52.40447 | 10.40798 | 36942 ft | 533 kts | 71° |
| 2026-05-06 15:55 | 52.42137 | 10.52511 | 36980 ft | 532 kts | 71° |
| 2026-05-06 15:55 | 52.43827 | 10.64313 | 36995 ft | 532 kts | 71° |
| 2026-05-06 15:56 | 52.45511 | 10.76150 | 36999 ft | 533 kts | 72° |
| 2026-05-06 15:56 | 52.47170 | 10.87960 | 37003 ft | 532 kts | 71° |
| 2026-05-06 15:57 | 52.48804 | 10.99739 | 37005 ft | 527 kts | 70° |
| 2026-05-06 15:57 | 52.50411 | 11.11319 | 37000 ft | 522 kts | 69° |
| 2026-05-06 15:58 | 52.52023 | 11.22953 | 36968 ft | 521 kts | 69° |
| 2026-05-06 15:58 | 52.53611 | 11.34522 | 36920 ft | 522 kts | 69° |
| 2026-05-06 15:59 | 52.55188 | 11.46146 | 36881 ft | 522 kts | 69° |
| 2026-05-06 15:59 | 52.56744 | 11.57717 | 36846 ft | 522 kts | 69° |
| 2026-05-06 16:00 | 52.58301 | 11.69377 | 36819 ft | 522 kts | 70° |
| 2026-05-06 16:00 | 52.59849 | 11.81072 | 36810 ft | 523 kts | 70° |
| 2026-05-06 16:01 | 52.61373 | 11.92687 | 36806 ft | 523 kts | 70° |
| 2026-05-06 16:01 | 52.62902 | 12.04437 | 36805 ft | 523 kts | 70° |
| 2026-05-06 16:02 | 52.64408 | 12.16104 | 36805 ft | 522 kts | 70° |
| 2026-05-06 16:02 | 52.65904 | 12.27784 | 36806 ft | 523 kts | 70° |
| 2026-05-06 16:03 | 52.67395 | 12.39523 | 36812 ft | 523 kts | 70° |
| 2026-05-06 16:03 | 52.68860 | 12.51159 | 36821 ft | 523 kts | 70° |
| 2026-05-06 16:04 | 52.70327 | 12.62909 | 36827 ft | 522 kts | 70° |
| 2026-05-06 16:04 | 52.71778 | 12.74620 | 36828 ft | 523 kts | 71° |
| 2026-05-06 16:05 | 52.73217 | 12.86351 | 36831 ft | 523 kts | 71° |
| 2026-05-06 16:05 | 52.74649 | 12.98141 | 36832 ft | 523 kts | 71° |
| 2026-05-06 16:06 | 52.76056 | 13.09872 | 36834 ft | 518 kts | 70° |
| 2026-05-06 16:06 | 52.77427 | 13.21409 | 36834 ft | 510 kts | 70° |
| 2026-05-06 16:07 | 52.78790 | 13.32873 | 36831 ft | 507 kts | 69° |
| 2026-05-06 16:07 | 52.80132 | 13.44231 | 36831 ft | 507 kts | 69° |
| 2026-05-06 16:08 | 52.81462 | 13.55642 | 36831 ft | 506 kts | 69° |
| 2026-05-06 16:08 | 52.82782 | 13.67064 | 36827 ft | 507 kts | 70° |
| 2026-05-06 16:09 | 52.84101 | 13.78580 | 36831 ft | 508 kts | 70° |
| 2026-05-06 16:09 | 52.85395 | 13.90006 | 36831 ft | 508 kts | 70° |
| 2026-05-06 16:10 | 52.86684 | 14.01479 | 36831 ft | 507 kts | 70° |
| 2026-05-06 16:10 | 52.87961 | 14.12945 | 36831 ft | 507 kts | 70° |
| 2026-05-06 16:11 | 52.89226 | 14.24420 | 36831 ft | 507 kts | 70° |
| 2026-05-06 16:11 | 52.90812 | 14.35608 | 36834 ft | 498 kts | 63° |
| 2026-05-06 16:12 | 52.92879 | 14.46535 | 36841 ft | 496 kts | 62° |
| 2026-05-06 16:12 | 52.94963 | 14.57357 | 36848 ft | 496 kts | 62° |
| 2026-05-06 16:13 | 52.97046 | 14.68307 | 36850 ft | 496 kts | 63° |
| 2026-05-06 16:13 | 52.99103 | 14.79201 | 36856 ft | 497 kts | 64° |
| 2026-05-06 16:14 | 53.01144 | 14.90134 | 36859 ft | 497 kts | 65° |
| 2026-05-06 16:14 | 53.03172 | 15.01025 | 36861 ft | 490 kts | 68° |
| 2026-05-06 16:15 | 53.05150 | 15.11748 | 36861 ft | 482 kts | 69° |
| 2026-05-06 16:15 | 53.07080 | 15.22337 | 36858 ft | 479 kts | 70° |
| 2026-05-06 16:16 | 53.08998 | 15.32914 | 36857 ft | 478 kts | 70° |
| 2026-05-06 16:16 | 53.10906 | 15.43465 | 36858 ft | 477 kts | 70° |
| 2026-05-06 16:17 | 53.12801 | 15.54000 | 36858 ft | 476 kts | 71° |
| 2026-05-06 16:17 | 53.14682 | 15.64529 | 36858 ft | 476 kts | 71° |
| 2026-05-06 16:18 | 53.16562 | 15.75097 | 36857 ft | 476 kts | 72° |
| 2026-05-06 16:18 | 53.18444 | 15.85746 | 36857 ft | 476 kts | 71° |
| 2026-05-06 16:19 | 53.20303 | 15.96319 | 36857 ft | 476 kts | 71° |
| 2026-05-06 16:19 | 53.22141 | 16.06834 | 36857 ft | 476 kts | 71° |
| 2026-05-06 16:20 | 53.23986 | 16.17448 | 36858 ft | 476 kts | 71° |
| 2026-05-06 16:20 | 53.25819 | 16.28055 | 36858 ft | 476 kts | 71° |
| 2026-05-06 16:21 | 53.27644 | 16.38684 | 36854 ft | 476 kts | 72° |
| 2026-05-06 16:21 | 53.29458 | 16.49307 | 36834 ft | 476 kts | 72° |
| 2026-05-06 16:22 | 53.31264 | 16.59958 | 36820 ft | 476 kts | 72° |
| 2026-05-06 16:22 | 53.33058 | 16.70598 | 36811 ft | 476 kts | 72° |
| 2026-05-06 16:23 | 53.34846 | 16.81265 | 36807 ft | 476 kts | 72° |
| 2026-05-06 16:23 | 53.36609 | 16.91854 | 36805 ft | 474 kts | 72° |
| 2026-05-06 16:24 | 53.38365 | 17.02459 | 36797 ft | 471 kts | 72° |
| 2026-05-06 16:24 | 53.40100 | 17.13007 | 36784 ft | 469 kts | 73° |
| 2026-05-06 16:25 | 53.41825 | 17.23558 | 36771 ft | 469 kts | 73° |
| 2026-05-06 16:25 | 53.43527 | 17.34036 | 36761 ft | 469 kts | 73° |
| 2026-05-06 16:26 | 53.45235 | 17.44614 | 36755 ft | 469 kts | 72° |
| 2026-05-06 16:26 | 53.46933 | 17.55194 | 36752 ft | 469 kts | 73° |
| 2026-05-06 16:27 | 53.48615 | 17.65739 | 36749 ft | 469 kts | 73° |
| 2026-05-06 16:27 | 53.50294 | 17.76335 | 36749 ft | 469 kts | 73° |
| 2026-05-06 16:28 | 53.51951 | 17.86861 | 36749 ft | 469 kts | 73° |
| 2026-05-06 16:28 | 53.53609 | 17.97461 | 36749 ft | 469 kts | 73° |
| 2026-05-06 16:29 | 53.55263 | 18.08104 | 36749 ft | 469 kts | 73° |
| 2026-05-06 16:29 | 53.56895 | 18.18673 | 36749 ft | 469 kts | 73° |
| 2026-05-06 16:30 | 53.58251 | 18.27502 | 36749 ft | 469 kts | 73° |
| 2026-05-06 16:30 | 53.60147 | 18.39937 | 36749 ft | 469 kts | 73° |
| 2026-05-06 16:31 | 53.61751 | 18.50531 | 36750 ft | 469 kts | 73° |
| 2026-05-06 16:31 | 53.63356 | 18.61201 | 36759 ft | 469 kts | 73° |
| 2026-05-06 16:32 | 53.64940 | 18.71795 | 36781 ft | 469 kts | 74° |
| 2026-05-06 16:32 | 53.66523 | 18.82471 | 36808 ft | 469 kts | 74° |
| 2026-05-06 16:33 | 53.68096 | 18.93139 | 36821 ft | 469 kts | 74° |
| 2026-05-06 16:34 | 53.70423 | 19.09101 | 36830 ft | 465 kts | 73° |
| 2026-05-06 16:34 | 53.71938 | 19.19567 | 36832 ft | 458 kts | 73° |
| 2026-05-06 16:35 | 53.73439 | 19.29973 | 36831 ft | 455 kts | 73° |
| 2026-05-06 16:35 | 53.74921 | 19.40311 | 36831 ft | 455 kts | 73° |
| 2026-05-06 16:36 | 53.76392 | 19.50653 | 36830 ft | 454 kts | 73° |
| 2026-05-06 16:36 | 53.77867 | 19.61101 | 36823 ft | 455 kts | 73° |
| 2026-05-06 16:37 | 53.79318 | 19.71458 | 36810 ft | 455 kts | 74° |
| 2026-05-06 16:37 | 53.80765 | 19.81857 | 36799 ft | 455 kts | 74° |
| 2026-05-06 16:38 | 53.82205 | 19.92274 | 36791 ft | 455 kts | 74° |
| 2026-05-06 16:38 | 53.83631 | 20.02667 | 36785 ft | 455 kts | 74° |
| 2026-05-06 16:39 | 53.85055 | 20.13121 | 36781 ft | 455 kts | 74° |
| 2026-05-06 16:39 | 53.86466 | 20.23542 | 36778 ft | 455 kts | 74° |
| 2026-05-06 16:40 | 53.87864 | 20.33942 | 36777 ft | 455 kts | 74° |
| 2026-05-06 16:40 | 53.89265 | 20.44448 | 36777 ft | 455 kts | 74° |
| 2026-05-06 16:41 | 53.90641 | 20.54835 | 36777 ft | 455 kts | 74° |
| 2026-05-06 16:41 | 53.92016 | 20.65287 | 36777 ft | 455 kts | 75° |
| 2026-05-06 16:42 | 53.93388 | 20.75792 | 36778 ft | 455 kts | 75° |
| 2026-05-06 16:42 | 53.94748 | 20.86284 | 36778 ft | 455 kts | 75° |
| 2026-05-06 16:43 | 53.96091 | 20.96717 | 36778 ft | 455 kts | 75° |
| 2026-05-06 16:43 | 53.97436 | 21.07239 | 36778 ft | 453 kts | 75° |
| 2026-05-06 16:44 | 53.98758 | 21.17677 | 36778 ft | 452 kts | 75° |
| 2026-05-06 16:44 | 54.00203 | 21.28006 | 36777 ft | 450 kts | 71° |
| 2026-05-06 16:45 | 54.02014 | 21.38200 | 36777 ft | 450 kts | 70° |
| 2026-05-06 16:45 | 54.03847 | 21.48367 | 36777 ft | 450 kts | 70° |
| 2026-05-06 16:46 | 54.05663 | 21.58540 | 36777 ft | 450 kts | 70° |
| 2026-05-06 16:46 | 54.07464 | 21.68698 | 36459 ft | 449 kts | 70° |
| 2026-05-06 16:46 | 54.08359 | 21.73779 | 36209 ft | 446 kts | 70° |
| 2026-05-06 16:47 | 54.09253 | 21.78865 | 35957 ft | 444 kts | 70° |
| 2026-05-06 16:47 | 54.10125 | 21.83840 | 35710 ft | 441 kts | 70° |
| 2026-05-06 16:47 | 54.11004 | 21.88863 | 35459 ft | 440 kts | 70° |
| 2026-05-06 16:47 | 54.11871 | 21.93834 | 35211 ft | 440 kts | 70° |
| 2026-05-06 16:48 | 54.12742 | 21.98839 | 34961 ft | 441 kts | 70° |
| 2026-05-06 16:48 | 54.13617 | 22.03879 | 34710 ft | 441 kts | 70° |
| 2026-05-06 16:48 | 54.14486 | 22.08902 | 34460 ft | 442 kts | 70° |
| 2026-05-06 16:48 | 54.15362 | 22.13985 | 34184 ft | 443 kts | 70° |
| 2026-05-06 16:49 | 54.16219 | 22.18973 | 33796 ft | 444 kts | 70° |
| 2026-05-06 16:49 | 54.17083 | 22.24018 | 33262 ft | 445 kts | 71° |
| 2026-05-06 16:49 | 54.17955 | 22.29131 | 32580 ft | 448 kts | 71° |
| 2026-05-06 16:49 | 54.18822 | 22.34231 | 31830 ft | 451 kts | 71° |
| 2026-05-06 16:50 | 54.19688 | 22.39340 | 31279 ft | 449 kts | 71° |
| 2026-05-06 16:50 | 54.20546 | 22.44423 | 30763 ft | 446 kts | 71° |
| 2026-05-06 16:50 | 54.21404 | 22.49514 | 30245 ft | 443 kts | 71° |
| 2026-05-06 16:50 | 54.21972 | 22.52892 | 29901 ft | 441 kts | 71° |
| 2026-05-06 16:51 | 54.23094 | 22.59585 | 29222 ft | 438 kts | 71° |
| 2026-05-06 16:51 | 54.23930 | 22.64586 | 28715 ft | 435 kts | 71° |
| 2026-05-06 16:51 | 54.24756 | 22.69540 | 28205 ft | 432 kts | 72° |
| 2026-05-06 16:51 | 54.25579 | 22.74488 | 27699 ft | 430 kts | 72° |
| 2026-05-06 16:52 | 54.26381 | 22.79327 | 27206 ft | 427 kts | 72° |
| 2026-05-06 16:52 | 54.27184 | 22.84185 | 26716 ft | 424 kts | 73° |
| 2026-05-06 16:52 | 54.27990 | 22.89071 | 26230 ft | 421 kts | 73° |
| 2026-05-06 16:52 | 54.28775 | 22.93848 | 25762 ft | 418 kts | 73° |
| 2026-05-06 16:53 | 54.29554 | 22.98607 | 25298 ft | 414 kts | 73° |
| 2026-05-06 16:53 | 54.30317 | 23.03279 | 24844 ft | 411 kts | 73° |
| 2026-05-06 16:53 | 54.31076 | 23.07969 | 24385 ft | 408 kts | 73° |
| 2026-05-06 16:53 | 54.31818 | 23.12670 | 23915 ft | 405 kts | 74° |
| 2026-05-06 16:54 | 54.32540 | 23.17296 | 23454 ft | 402 kts | 74° |
| 2026-05-06 16:54 | 54.33257 | 23.21903 | 22992 ft | 400 kts | 74° |
| 2026-05-06 16:54 | 54.33964 | 23.26457 | 22537 ft | 397 kts | 74° |
| 2026-05-06 16:54 | 54.34669 | 23.31001 | 22082 ft | 395 kts | 74° |
| 2026-05-06 16:55 | 54.35368 | 23.35515 | 21630 ft | 392 kts | 75° |
| 2026-05-06 16:55 | 54.36060 | 23.39998 | 21181 ft | 390 kts | 75° |
| 2026-05-06 16:55 | 54.36751 | 23.44480 | 20731 ft | 388 kts | 75° |
| 2026-05-06 16:55 | 54.37435 | 23.48932 | 20284 ft | 386 kts | 75° |
| 2026-05-06 16:56 | 54.38115 | 23.53370 | 19838 ft | 384 kts | 75° |
| 2026-05-06 16:56 | 54.38792 | 23.57799 | 19392 ft | 382 kts | 75° |
| 2026-05-06 16:56 | 54.39456 | 23.62151 | 18953 ft | 380 kts | 75° |
| 2026-05-06 16:56 | 54.40120 | 23.66521 | 18511 ft | 378 kts | 76° |
| 2026-05-06 16:57 | 54.40786 | 23.70908 | 18066 ft | 376 kts | 76° |
| 2026-05-06 16:57 | 54.41437 | 23.75218 | 17629 ft | 374 kts | 76° |
| 2026-05-06 16:57 | 54.42082 | 23.79491 | 17194 ft | 372 kts | 76° |
| 2026-05-06 16:57 | 54.42731 | 23.83805 | 16756 ft | 370 kts | 76° |
| 2026-05-06 16:58 | 54.43370 | 23.88065 | 16322 ft | 368 kts | 76° |
| 2026-05-06 16:58 | 54.44006 | 23.92316 | 15887 ft | 366 kts | 76° |
| 2026-05-06 16:58 | 54.44635 | 23.96534 | 15452 ft | 364 kts | 77° |
| 2026-05-06 16:58 | 54.45259 | 24.00726 | 15018 ft | 362 kts | 77° |
| 2026-05-06 16:59 | 54.45879 | 24.04904 | 14586 ft | 360 kts | 77° |
| 2026-05-06 16:59 | 54.46491 | 24.09033 | 14157 ft | 358 kts | 77° |
| 2026-05-06 16:59 | 54.47095 | 24.13130 | 13730 ft | 355 kts | 77° |
| 2026-05-06 16:59 | 54.47697 | 24.17219 | 13306 ft | 353 kts | 77° |
| 2026-05-06 17:00 | 54.48298 | 24.21310 | 12892 ft | 351 kts | 77° |
| 2026-05-06 17:00 | 54.48894 | 24.25378 | 12464 ft | 349 kts | 77° |
| 2026-05-06 17:00 | 54.49486 | 24.29427 | 12034 ft | 347 kts | 77° |
| 2026-05-06 17:00 | 54.50082 | 24.33517 | 11596 ft | 345 kts | 77° |
| 2026-05-06 17:01 | 54.50672 | 24.37578 | 11144 ft | 344 kts | 77° |
| 2026-05-06 17:01 | 54.51247 | 24.41552 | 10695 ft | 343 kts | 76° |
| 2026-05-06 17:01 | 54.51822 | 24.45535 | 10308 ft | 339 kts | 76° |
| 2026-05-06 17:01 | 54.52380 | 24.49400 | 10130 ft | 329 kts | 76° |
| 2026-05-06 17:02 | 54.52927 | 24.53193 | 9978 ft | 319 kts | 76° |
| 2026-05-06 17:02 | 54.53453 | 24.56857 | 9686 ft | 315 kts | 76° |
| 2026-05-06 17:02 | 54.53979 | 24.60491 | 9392 ft | 310 kts | 77° |
| 2026-05-06 17:02 | 54.54475 | 24.63962 | 9029 ft | 296 kts | 77° |
| 2026-05-06 17:03 | 54.54955 | 24.67339 | 8649 ft | 282 kts | 78° |
| 2026-05-06 17:03 | 54.55410 | 24.70545 | 8293 ft | 275 kts | 78° |
| 2026-05-06 17:03 | 54.55864 | 24.73760 | 7952 ft | 275 kts | 78° |
| 2026-05-06 17:03 | 54.56315 | 24.76958 | 7614 ft | 275 kts | 78° |
| 2026-05-06 17:04 | 54.56768 | 24.80172 | 7273 ft | 275 kts | 78° |
| 2026-05-06 17:04 | 54.57215 | 24.83349 | 6934 ft | 274 kts | 78° |
| 2026-05-06 17:04 | 54.57666 | 24.86561 | 6591 ft | 274 kts | 78° |
| 2026-05-06 17:04 | 54.58109 | 24.89713 | 6310 ft | 270 kts | 78° |
| 2026-05-06 17:05 | 54.58364 | 24.92850 | 6182 ft | 258 kts | 98° |
| 2026-05-06 17:05 | 54.57707 | 24.95580 | 5973 ft | 249 kts | 131° |
| 2026-05-06 17:05 | 54.56319 | 24.97374 | 5636 ft | 249 kts | 149° |
| 2026-05-06 17:05 | 54.54831 | 24.98858 | 5307 ft | 249 kts | 148° |
| 2026-05-06 17:06 | 54.53345 | 25.00362 | 5066 ft | 245 kts | 148° |
| 2026-05-06 17:06 | 54.51899 | 25.01858 | 4773 ft | 244 kts | 147° |
| 2026-05-06 17:06 | 54.50437 | 25.03392 | 4401 ft | 246 kts | 147° |
| 2026-05-06 17:06 | 54.49000 | 25.04988 | 4066 ft | 245 kts | 138° |
| 2026-05-06 17:07 | 54.47966 | 25.07225 | 3867 ft | 237 kts | 115° |
| 2026-05-06 17:07 | 54.47318 | 25.09796 | 3608 ft | 232 kts | 111° |
| 2026-05-06 17:07 | 54.46785 | 25.12386 | 3335 ft | 227 kts | 98° |
| 2026-05-06 17:07 | 54.46949 | 25.14982 | 3105 ft | 221 kts | 66° |
| 2026-05-06 17:08 | 54.47864 | 25.17059 | 3022 ft | 214 kts | 44° |
| 2026-05-06 17:08 | 54.49029 | 25.18487 | 3055 ft | 199 kts | 31° |
| 2026-05-06 17:08 | 54.50212 | 25.19459 | 3075 ft | 178 kts | 25° |
| 2026-05-06 17:08 | 54.51294 | 25.20199 | 2949 ft | 160 kts | 24° |
| 2026-05-06 17:09 | 54.52299 | 25.20870 | 2726 ft | 147 kts | 25° |
| 2026-05-06 17:09 | 54.53209 | 25.21490 | 2513 ft | 140 kts | 25° |
| 2026-05-06 17:09 | 54.54107 | 25.22113 | 2329 ft | 139 kts | 25° |
| 2026-05-06 17:09 | 54.55002 | 25.22737 | 2148 ft | 138 kts | 25° |
| 2026-05-06 17:10 | 54.55889 | 25.23355 | 1970 ft | 137 kts | 25° |
| 2026-05-06 17:10 | 54.56773 | 25.23969 | 1793 ft | 136 kts | 25° |
| 2026-05-06 17:10 | 54.57654 | 25.24580 | 1613 ft | 136 kts | 25° |
| 2026-05-06 17:10 | 54.58529 | 25.25187 | 1433 ft | 135 kts | 25° |
| 2026-05-06 17:11 | 54.59404 | 25.25794 | 1252 ft | 134 kts | 25° |
| 2026-05-06 17:11 | 54.60261 | 25.26387 | 1073 ft | 133 kts | 25° |
| 2026-05-06 17:11 | 54.61129 | 25.26987 | 890 ft | 133 kts | 24° |
| 2026-05-06 17:11 | 54.61973 | 25.27565 | 723 ft | 132 kts | 24° |
| 2026-05-06 17:12 | 54.62827 | 25.28164 | 609 ft | 126 kts | 24° |
| 2026-05-06 17:12 | 54.63486 | 25.28629 | 606 ft | 79 kts | 21° |
| 2026-05-06 17:12 | 54.63880 | 25.28901 | 606 ft | 48 kts | 21° |
| 2026-05-06 17:12 | 54.64166 | 25.29096 | 606 ft | 36 kts | 22° |
| 2026-05-06 17:13 | 54.64370 | 25.29243 | 606 ft | 21 kts | 22° |
| 2026-05-06 17:13 | 54.64475 | 25.29212 | 606 ft | 14 kts | 298° |
| 2026-05-06 17:13 | 54.64509 | 25.29083 | 606 ft | 4 kts | 295° |
| 2026-05-06 17:13 | 54.64514 | 25.29066 | 606 ft | 0 kts | 295° |
| 2026-05-06 17:14 | 54.64514 | 25.29065 | 606 ft | 0 kts | 295° |
| 2026-05-06 17:14 | 54.64503 | 25.29033 | 606 ft | 9 kts | 219° |
| 2026-05-06 17:14 | 54.64419 | 25.28969 | 606 ft | 13 kts | 200° |
| 2026-05-06 17:15 | 54.64330 | 25.28908 | 606 ft | 13 kts | 202° |
| 2026-05-06 17:15 | 54.64243 | 25.28846 | 606 ft | 13 kts | 202° |
| 2026-05-06 17:15 | 54.64159 | 25.28784 | 606 ft | 12 kts | 213° |
| 2026-05-06 17:15 | 54.64182 | 25.28692 | 606 ft | 10 kts | 346° |
| 2026-05-06 17:16 | 54.64214 | 25.28606 | 606 ft | 8 kts | 265° |
| 2026-05-06 17:16 | 54.64227 | 25.28546 | 606 ft | 5 kts | 349° |
| 2026-05-06 17:16 | 54.64267 | 25.28542 | 606 ft | 3 kts | 356° |
| 2026-05-06 17:16 | 54.64268 | 25.28541 | 606 ft | 0 kts | 356° |